sensor_id;sensor_type;location;lat;lon;timestamp;temperature;humidity
31733;DHT22;18312;51.486;7.144;2022-10-17T00:00:37;14.10;99.90
31733;DHT22;18312;51.486;7.144;2022-10-17T00:03:03;14.00;99.90
31733;DHT22;18312;51.486;7.144;2022-10-17T00:05:30;14.00;99.90
31733;DHT22;18312;51.486;7.144;2022-10-17T00:07:57;14.00;99.90
31733;DHT22;18312;51.486;7.144;2022-10-17T00:10:26;14.00;99.90
31733;DHT22;18312;51.486;7.144;2022-10-17T00:12:52;13.90;99.90
31733;DHT22;18312;51.486;7.144;2022-10-17T00:15:20;14.00;99.90
31733;DHT22;18312;51.486;7.144;2022-10-17T00:17:47;14.00;99.90
31733;DHT22;18312;51.486;7.144;2022-10-17T00:20:14;13.90;99.90
31733;DHT22;18312;51.486;7.144;2022-10-17T00:22:41;13.80;99.90
31733;DHT22;18312;51.486;7.144;2022-10-17T00:25:09;13.80;99.90
31733;DHT22;18312;51.486;7.144;2022-10-17T00:27:38;13.70;99.90
31733;DHT22;18312;51.486;7.144;2022-10-17T00:30:06;13.70;99.90
31733;DHT22;18312;51.486;7.144;2022-10-17T00:32:33;13.60;99.90
31733;DHT22;18312;51.486;7.144;2022-10-17T00:35:00;13.60;99.90
31733;DHT22;18312;51.486;7.144;2022-10-17T00:37:30;13.60;99.90
31733;DHT22;18312;51.486;7.144;2022-10-17T00:39:57;13.60;99.90
31733;DHT22;18312;51.486;7.144;2022-10-17T00:42:24;13.60;99.90
31733;DHT22;18312;51.486;7.144;2022-10-17T00:45:00;13.60;99.90
31733;DHT22;18312;51.486;7.144;2022-10-17T00:47:28;13.50;99.90
31733;DHT22;18312;51.486;7.144;2022-10-17T00:49:56;13.40;99.90
31733;DHT22;18312;51.486;7.144;2022-10-17T00:52:26;13.50;99.90
31733;DHT22;18312;51.486;7.144;2022-10-17T00:54:56;13.60;99.90
31733;DHT22;18312;51.486;7.144;2022-10-17T00:57:24;13.90;99.90
31733;DHT22;18312;51.486;7.144;2022-10-17T00:59:53;14.00;99.90
31733;DHT22;18312;51.486;7.144;2022-10-17T01:02:23;14.20;99.90
31733;DHT22;18312;51.486;7.144;2022-10-17T01:04:51;14.30;99.90
31733;DHT22;18312;51.486;7.144;2022-10-17T01:07:20;14.40;99.90
31733;DHT22;18312;51.486;7.144;2022-10-17T01:09:47;14.50;99.90
31733;DHT22;18312;51.486;7.144;2022-10-17T01:12:19;14.60;99.90
31733;DHT22;18312;51.486;7.144;2022-10-17T01:14:54;14.70;99.90
31733;DHT22;18312;51.486;7.144;2022-10-17T01:17:28;14.80;99.90
31733;DHT22;18312;51.486;7.144;2022-10-17T01:20:22;14.80;99.90
31733;DHT22;18312;51.486;7.144;2022-10-17T01:23:02;14.90;99.90
31733;DHT22;18312;51.486;7.144;2022-10-17T01:25:43;14.90;99.90
31733;DHT22;18312;51.486;7.144;2022-10-17T01:28:22;14.90;99.90
31733;DHT22;18312;51.486;7.144;2022-10-17T01:30:58;15.00;99.90
31733;DHT22;18312;51.486;7.144;2022-10-17T01:33:37;15.00;99.90
31733;DHT22;18312;51.486;7.144;2022-10-17T01:36:10;15.00;99.90
31733;DHT22;18312;51.486;7.144;2022-10-17T01:38:44;15.10;99.90
31733;DHT22;18312;51.486;7.144;2022-10-17T01:41:18;15.10;99.90
31733;DHT22;18312;51.486;7.144;2022-10-17T01:43:51;15.10;99.90
31733;DHT22;18312;51.486;7.144;2022-10-17T01:46:23;15.10;99.90
31733;DHT22;18312;51.486;7.144;2022-10-17T01:48:56;15.20;99.90
31733;DHT22;18312;51.486;7.144;2022-10-17T01:51:29;15.20;99.90
31733;DHT22;18312;51.486;7.144;2022-10-17T01:54:00;15.20;99.90
31733;DHT22;18312;51.486;7.144;2022-10-17T01:56:31;15.10;99.90
31733;DHT22;18312;51.486;7.144;2022-10-17T01:59:02;15.20;99.90
31733;DHT22;18312;51.486;7.144;2022-10-17T02:01:31;15.10;99.90
31733;DHT22;18312;51.486;7.144;2022-10-17T02:04:00;15.10;99.90
31733;DHT22;18312;51.486;7.144;2022-10-17T02:06:33;15.10;99.90
31733;DHT22;18312;51.486;7.144;2022-10-17T02:09:00;15.20;99.90
31733;DHT22;18312;51.486;7.144;2022-10-17T02:11:27;15.30;99.90
31733;DHT22;18312;51.486;7.144;2022-10-17T02:14:08;15.30;99.90
31733;DHT22;18312;51.486;7.144;2022-10-17T02:16:47;15.30;99.90
31733;DHT22;18312;51.486;7.144;2022-10-17T02:19:28;15.30;99.90
31733;DHT22;18312;51.486;7.144;2022-10-17T02:22:05;15.40;99.90
31733;DHT22;18312;51.486;7.144;2022-10-17T02:24:43;15.50;99.90
31733;DHT22;18312;51.486;7.144;2022-10-17T02:27:14;15.60;99.90
31733;DHT22;18312;51.486;7.144;2022-10-17T02:29:46;15.60;99.90
31733;DHT22;18312;51.486;7.144;2022-10-17T02:32:26;15.70;99.90
31733;DHT22;18312;51.486;7.144;2022-10-17T02:34:55;15.70;99.90
31733;DHT22;18312;51.486;7.144;2022-10-17T02:37:26;15.70;99.90
31733;DHT22;18312;51.486;7.144;2022-10-17T02:39:54;15.70;99.90
31733;DHT22;18312;51.486;7.144;2022-10-17T02:42:22;15.70;99.90
31733;DHT22;18312;51.486;7.144;2022-10-17T02:44:50;15.70;99.90
31733;DHT22;18312;51.486;7.144;2022-10-17T02:47:24;15.70;99.90
31733;DHT22;18312;51.486;7.144;2022-10-17T02:49:52;15.70;99.90
31733;DHT22;18312;51.486;7.144;2022-10-17T02:52:25;15.70;99.90
31733;DHT22;18312;51.486;7.144;2022-10-17T02:54:56;15.70;99.90
31733;DHT22;18312;51.486;7.144;2022-10-17T02:57:29;15.70;99.90
31733;DHT22;18312;51.486;7.144;2022-10-17T02:59:57;15.80;99.90
31733;DHT22;18312;51.486;7.144;2022-10-17T03:02:27;15.70;99.90
31733;DHT22;18312;51.486;7.144;2022-10-17T03:04:54;15.70;99.90
31733;DHT22;18312;51.486;7.144;2022-10-17T03:07:21;15.70;99.90
31733;DHT22;18312;51.486;7.144;2022-10-17T03:09:48;15.70;99.90
31733;DHT22;18312;51.486;7.144;2022-10-17T03:12:15;15.70;99.90
31733;DHT22;18312;51.486;7.144;2022-10-17T03:14:41;15.70;99.90
31733;DHT22;18312;51.486;7.144;2022-10-17T03:17:08;15.60;99.90
31733;DHT22;18312;51.486;7.144;2022-10-17T03:19:37;15.60;99.90
31733;DHT22;18312;51.486;7.144;2022-10-17T03:22:03;15.70;99.90
31733;DHT22;18312;51.486;7.144;2022-10-17T03:24:30;15.70;99.90
31733;DHT22;18312;51.486;7.144;2022-10-17T03:26:57;15.70;99.90
31733;DHT22;18312;51.486;7.144;2022-10-17T03:29:24;15.80;99.90
31733;DHT22;18312;51.486;7.144;2022-10-17T03:31:52;15.80;99.90
31733;DHT22;18312;51.486;7.144;2022-10-17T03:34:32;15.80;99.90
31733;DHT22;18312;51.486;7.144;2022-10-17T03:37:00;15.80;99.90
31733;DHT22;18312;51.486;7.144;2022-10-17T03:39:27;15.80;99.90
31733;DHT22;18312;51.486;7.144;2022-10-17T03:41:54;15.80;99.90
31733;DHT22;18312;51.486;7.144;2022-10-17T03:44:21;15.80;99.90
31733;DHT22;18312;51.486;7.144;2022-10-17T03:46:54;15.90;99.90
31733;DHT22;18312;51.486;7.144;2022-10-17T03:49:21;15.90;99.90
31733;DHT22;18312;51.486;7.144;2022-10-17T03:51:48;16.00;99.90
31733;DHT22;18312;51.486;7.144;2022-10-17T03:54:16;15.90;99.90
31733;DHT22;18312;51.486;7.144;2022-10-17T03:56:43;15.90;99.90
31733;DHT22;18312;51.486;7.144;2022-10-17T03:59:12;15.90;99.90
31733;DHT22;18312;51.486;7.144;2022-10-17T04:01:42;15.90;99.90
31733;DHT22;18312;51.486;7.144;2022-10-17T04:04:10;15.90;99.90
31733;DHT22;18312;51.486;7.144;2022-10-17T04:06:38;15.90;99.90
31733;DHT22;18312;51.486;7.144;2022-10-17T04:09:06;15.90;99.90
31733;DHT22;18312;51.486;7.144;2022-10-17T04:11:34;15.90;99.90
31733;DHT22;18312;51.486;7.144;2022-10-17T04:14:01;16.00;99.90
31733;DHT22;18312;51.486;7.144;2022-10-17T04:16:28;16.00;99.90
31733;DHT22;18312;51.486;7.144;2022-10-17T04:19:03;16.00;99.90
31733;DHT22;18312;51.486;7.144;2022-10-17T04:21:30;16.00;99.90
31733;DHT22;18312;51.486;7.144;2022-10-17T04:23:59;16.00;99.90
31733;DHT22;18312;51.486;7.144;2022-10-17T04:26:26;16.10;99.90
31733;DHT22;18312;51.486;7.144;2022-10-17T04:28:54;16.10;99.90
31733;DHT22;18312;51.486;7.144;2022-10-17T04:31:23;16.00;99.90
31733;DHT22;18312;51.486;7.144;2022-10-17T04:33:50;16.00;99.90
31733;DHT22;18312;51.486;7.144;2022-10-17T04:36:18;16.10;99.90
31733;DHT22;18312;51.486;7.144;2022-10-17T04:38:45;16.10;99.90
31733;DHT22;18312;51.486;7.144;2022-10-17T04:41:14;16.20;99.90
31733;DHT22;18312;51.486;7.144;2022-10-17T04:43:43;16.20;99.90
31733;DHT22;18312;51.486;7.144;2022-10-17T04:46:13;16.20;99.90
31733;DHT22;18312;51.486;7.144;2022-10-17T04:48:40;16.30;99.90
31733;DHT22;18312;51.486;7.144;2022-10-17T04:51:13;16.40;99.90
31733;DHT22;18312;51.486;7.144;2022-10-17T04:53:43;16.40;99.90
31733;DHT22;18312;51.486;7.144;2022-10-17T04:56:11;16.30;99.90
31733;DHT22;18312;51.486;7.144;2022-10-17T04:58:38;16.30;99.90
31733;DHT22;18312;51.486;7.144;2022-10-17T05:01:13;16.30;99.90
31733;DHT22;18312;51.486;7.144;2022-10-17T05:03:43;16.30;99.90
31733;DHT22;18312;51.486;7.144;2022-10-17T05:06:11;16.40;99.90
31733;DHT22;18312;51.486;7.144;2022-10-17T05:08:40;16.40;99.90
31733;DHT22;18312;51.486;7.144;2022-10-17T05:11:15;16.30;99.90
31733;DHT22;18312;51.486;7.144;2022-10-17T05:13:43;16.30;99.90
31733;DHT22;18312;51.486;7.144;2022-10-17T05:16:12;16.30;99.90
31733;DHT22;18312;51.486;7.144;2022-10-17T05:18:39;16.30;99.90
31733;DHT22;18312;51.486;7.144;2022-10-17T05:21:05;16.30;99.90
31733;DHT22;18312;51.486;7.144;2022-10-17T05:23:33;16.40;99.90
31733;DHT22;18312;51.486;7.144;2022-10-17T05:25:59;16.40;99.90
31733;DHT22;18312;51.486;7.144;2022-10-17T05:28:26;16.40;99.90
31733;DHT22;18312;51.486;7.144;2022-10-17T05:31:02;16.30;99.90
31733;DHT22;18312;51.486;7.144;2022-10-17T05:33:30;16.30;99.90
31733;DHT22;18312;51.486;7.144;2022-10-17T05:35:59;16.40;99.90
31733;DHT22;18312;51.486;7.144;2022-10-17T05:38:26;16.40;99.90
31733;DHT22;18312;51.486;7.144;2022-10-17T05:40:56;16.40;99.90
31733;DHT22;18312;51.486;7.144;2022-10-17T05:43:24;16.40;99.90
31733;DHT22;18312;51.486;7.144;2022-10-17T05:45:51;16.50;99.90
31733;DHT22;18312;51.486;7.144;2022-10-17T05:48:18;16.60;99.90
31733;DHT22;18312;51.486;7.144;2022-10-17T05:50:56;16.50;99.90
31733;DHT22;18312;51.486;7.144;2022-10-17T05:53:23;16.50;99.90
31733;DHT22;18312;51.486;7.144;2022-10-17T05:55:55;16.50;99.90
31733;DHT22;18312;51.486;7.144;2022-10-17T05:58:22;16.50;99.90
31733;DHT22;18312;51.486;7.144;2022-10-17T06:00:56;16.50;99.90
31733;DHT22;18312;51.486;7.144;2022-10-17T06:03:27;16.60;99.90
31733;DHT22;18312;51.486;7.144;2022-10-17T06:05:55;16.60;99.90
31733;DHT22;18312;51.486;7.144;2022-10-17T06:08:22;16.60;99.90
31733;DHT22;18312;51.486;7.144;2022-10-17T06:10:49;16.50;99.90
31733;DHT22;18312;51.486;7.144;2022-10-17T06:13:17;16.60;99.90
31733;DHT22;18312;51.486;7.144;2022-10-17T06:15:44;16.60;99.90
31733;DHT22;18312;51.486;7.144;2022-10-17T06:18:11;16.60;99.90
31733;DHT22;18312;51.486;7.144;2022-10-17T06:20:39;16.70;99.90
31733;DHT22;18312;51.486;7.144;2022-10-17T06:23:07;16.60;99.90
31733;DHT22;18312;51.486;7.144;2022-10-17T06:25:34;16.60;99.90
31733;DHT22;18312;51.486;7.144;2022-10-17T06:28:01;16.60;99.90
31733;DHT22;18312;51.486;7.144;2022-10-17T06:30:28;16.60;99.90
31733;DHT22;18312;51.486;7.144;2022-10-17T06:32:55;16.60;99.90
31733;DHT22;18312;51.486;7.144;2022-10-17T06:35:22;16.60;99.90
31733;DHT22;18312;51.486;7.144;2022-10-17T06:37:49;16.60;99.90
31733;DHT22;18312;51.486;7.144;2022-10-17T06:40:17;16.50;99.90
31733;DHT22;18312;51.486;7.144;2022-10-17T06:42:44;16.60;99.90
31733;DHT22;18312;51.486;7.144;2022-10-17T06:45:12;16.60;99.90
31733;DHT22;18312;51.486;7.144;2022-10-17T06:47:39;16.60;99.90
31733;DHT22;18312;51.486;7.144;2022-10-17T06:50:07;16.70;99.90
31733;DHT22;18312;51.486;7.144;2022-10-17T06:52:34;16.70;99.90
31733;DHT22;18312;51.486;7.144;2022-10-17T06:55:01;16.60;99.90
31733;DHT22;18312;51.486;7.144;2022-10-17T06:57:32;16.70;99.90
31733;DHT22;18312;51.486;7.144;2022-10-17T06:59:59;16.80;99.90
31733;DHT22;18312;51.486;7.144;2022-10-17T07:02:26;16.80;99.90
31733;DHT22;18312;51.486;7.144;2022-10-17T07:04:53;16.80;99.90
31733;DHT22;18312;51.486;7.144;2022-10-17T07:07:21;16.90;99.90
31733;DHT22;18312;51.486;7.144;2022-10-17T07:09:47;17.00;99.90
31733;DHT22;18312;51.486;7.144;2022-10-17T07:12:14;17.10;99.90
31733;DHT22;18312;51.486;7.144;2022-10-17T07:14:43;17.20;99.90
31733;DHT22;18312;51.486;7.144;2022-10-17T07:17:17;17.30;99.90
31733;DHT22;18312;51.486;7.144;2022-10-17T07:19:48;17.30;99.90
31733;DHT22;18312;51.486;7.144;2022-10-17T07:22:18;17.40;99.90
31733;DHT22;18312;51.486;7.144;2022-10-17T07:24:45;17.50;99.90
31733;DHT22;18312;51.486;7.144;2022-10-17T07:27:12;17.50;99.90
31733;DHT22;18312;51.486;7.144;2022-10-17T07:29:43;17.60;99.90
31733;DHT22;18312;51.486;7.144;2022-10-17T07:32:09;17.80;99.90
31733;DHT22;18312;51.486;7.144;2022-10-17T07:34:36;18.00;99.90
31733;DHT22;18312;51.486;7.144;2022-10-17T07:37:03;18.30;99.90
31733;DHT22;18312;51.486;7.144;2022-10-17T07:39:31;18.50;99.90
31733;DHT22;18312;51.486;7.144;2022-10-17T07:42:00;18.40;99.90
31733;DHT22;18312;51.486;7.144;2022-10-17T07:44:26;18.60;99.90
31733;DHT22;18312;51.486;7.144;2022-10-17T07:46:55;19.20;99.90
31733;DHT22;18312;51.486;7.144;2022-10-17T07:49:23;19.50;99.90
31733;DHT22;18312;51.486;7.144;2022-10-17T07:51:50;19.10;99.90
31733;DHT22;18312;51.486;7.144;2022-10-17T07:54:17;19.00;99.90
31733;DHT22;18312;51.486;7.144;2022-10-17T07:56:53;18.90;99.90
31733;DHT22;18312;51.486;7.144;2022-10-17T07:59:20;18.80;99.90
31733;DHT22;18312;51.486;7.144;2022-10-17T08:01:46;18.80;99.90
31733;DHT22;18312;51.486;7.144;2022-10-17T08:04:15;18.80;99.90
31733;DHT22;18312;51.486;7.144;2022-10-17T08:06:44;18.80;99.90
31733;DHT22;18312;51.486;7.144;2022-10-17T08:09:11;18.80;99.90
31733;DHT22;18312;51.486;7.144;2022-10-17T08:11:38;18.90;99.90
31733;DHT22;18312;51.486;7.144;2022-10-17T08:14:06;19.00;99.90
31733;DHT22;18312;51.486;7.144;2022-10-17T08:16:32;19.00;99.90
31733;DHT22;18312;51.486;7.144;2022-10-17T08:19:00;19.10;99.90
31733;DHT22;18312;51.486;7.144;2022-10-17T08:21:28;19.10;99.90
31733;DHT22;18312;51.486;7.144;2022-10-17T08:23:55;19.20;99.90
31733;DHT22;18312;51.486;7.144;2022-10-17T08:26:22;19.20;99.90
31733;DHT22;18312;51.486;7.144;2022-10-17T08:28:51;19.30;99.90
31733;DHT22;18312;51.486;7.144;2022-10-17T08:31:19;19.30;99.90
31733;DHT22;18312;51.486;7.144;2022-10-17T08:33:46;19.30;99.90
31733;DHT22;18312;51.486;7.144;2022-10-17T08:36:15;19.40;99.90
31733;DHT22;18312;51.486;7.144;2022-10-17T08:38:44;19.50;99.90
31733;DHT22;18312;51.486;7.144;2022-10-17T08:41:14;19.50;99.90
31733;DHT22;18312;51.486;7.144;2022-10-17T08:43:54;19.60;99.90
31733;DHT22;18312;51.486;7.144;2022-10-17T08:46:28;19.80;99.90
31733;DHT22;18312;51.486;7.144;2022-10-17T08:48:58;19.90;99.90
31733;DHT22;18312;51.486;7.144;2022-10-17T08:51:29;20.00;99.90
31733;DHT22;18312;51.486;7.144;2022-10-17T08:54:04;20.00;99.90
31733;DHT22;18312;51.486;7.144;2022-10-17T08:56:39;20.10;99.90
31733;DHT22;18312;51.486;7.144;2022-10-17T08:59:10;20.20;99.90
31733;DHT22;18312;51.486;7.144;2022-10-17T09:01:41;20.40;99.90
31733;DHT22;18312;51.486;7.144;2022-10-17T09:04:45;20.50;99.90
31733;DHT22;18312;51.486;7.144;2022-10-17T09:07:19;20.50;99.90
31733;DHT22;18312;51.486;7.144;2022-10-17T09:09:57;20.70;99.90
31733;DHT22;18312;51.486;7.144;2022-10-17T09:12:33;20.80;99.90
31733;DHT22;18312;51.486;7.144;2022-10-17T09:15:30;20.80;99.90
31733;DHT22;18312;51.486;7.144;2022-10-17T09:18:02;20.90;99.90
31733;DHT22;18312;51.486;7.144;2022-10-17T09:20:32;20.80;99.90
31733;DHT22;18312;51.486;7.144;2022-10-17T09:23:05;20.80;99.90
31733;DHT22;18312;51.486;7.144;2022-10-17T09:25:41;20.90;99.90
31733;DHT22;18312;51.486;7.144;2022-10-17T09:28:14;20.90;99.90
31733;DHT22;18312;51.486;7.144;2022-10-17T09:30:43;21.00;99.90
31733;DHT22;18312;51.486;7.144;2022-10-17T09:33:14;21.10;99.90
31733;DHT22;18312;51.486;7.144;2022-10-17T09:35:41;21.10;99.90
31733;DHT22;18312;51.486;7.144;2022-10-17T09:38:15;21.30;99.90
31733;DHT22;18312;51.486;7.144;2022-10-17T09:40:47;21.50;99.90
31733;DHT22;18312;51.486;7.144;2022-10-17T09:43:15;21.70;99.90
31733;DHT22;18312;51.486;7.144;2022-10-17T09:45:54;21.70;99.90
31733;DHT22;18312;51.486;7.144;2022-10-17T09:48:25;21.50;99.90
31733;DHT22;18312;51.486;7.144;2022-10-17T09:50:56;21.50;99.90
31733;DHT22;18312;51.486;7.144;2022-10-17T09:53:26;21.50;99.90
31733;DHT22;18312;51.486;7.144;2022-10-17T09:55:59;21.50;99.90
31733;DHT22;18312;51.486;7.144;2022-10-17T09:58:39;21.50;99.90
31733;DHT22;18312;51.486;7.144;2022-10-17T10:01:26;21.30;99.90
31733;DHT22;18312;51.486;7.144;2022-10-17T10:04:09;21.00;99.90
31733;DHT22;18312;51.486;7.144;2022-10-17T10:06:36;20.90;99.90
31733;DHT22;18312;51.486;7.144;2022-10-17T10:09:04;20.90;99.90
31733;DHT22;18312;51.486;7.144;2022-10-17T10:11:47;20.90;99.90
31733;DHT22;18312;51.486;7.144;2022-10-17T10:14:20;21.00;99.90
31733;DHT22;18312;51.486;7.144;2022-10-17T10:16:49;21.00;99.90
31733;DHT22;18312;51.486;7.144;2022-10-17T10:19:20;21.00;99.90
31733;DHT22;18312;51.486;7.144;2022-10-17T10:21:54;21.00;99.90
31733;DHT22;18312;51.486;7.144;2022-10-17T10:24:22;20.90;99.90
31733;DHT22;18312;51.486;7.144;2022-10-17T10:26:51;20.90;99.90
31733;DHT22;18312;51.486;7.144;2022-10-17T10:29:22;20.90;99.90
31733;DHT22;18312;51.486;7.144;2022-10-17T10:31:51;20.90;99.90
31733;DHT22;18312;51.486;7.144;2022-10-17T10:34:21;20.90;99.90
31733;DHT22;18312;51.486;7.144;2022-10-17T10:36:54;20.80;99.90
31733;DHT22;18312;51.486;7.144;2022-10-17T10:39:39;20.70;99.90
31733;DHT22;18312;51.486;7.144;2022-10-17T10:42:21;20.60;99.90
31733;DHT22;18312;51.486;7.144;2022-10-17T10:44:49;20.70;99.90
31733;DHT22;18312;51.486;7.144;2022-10-17T10:47:20;20.90;99.90
31733;DHT22;18312;51.486;7.144;2022-10-17T10:49:50;21.10;99.90
31733;DHT22;18312;51.486;7.144;2022-10-17T10:52:30;21.30;99.90
31733;DHT22;18312;51.486;7.144;2022-10-17T10:55:06;21.30;99.90
31733;DHT22;18312;51.486;7.144;2022-10-17T10:57:43;21.30;99.90
31733;DHT22;18312;51.486;7.144;2022-10-17T11:00:14;21.30;99.90
31733;DHT22;18312;51.486;7.144;2022-10-17T11:02:48;21.30;99.90
31733;DHT22;18312;51.486;7.144;2022-10-17T11:05:34;21.30;99.90
31733;DHT22;18312;51.486;7.144;2022-10-17T11:08:08;21.30;99.90
31733;DHT22;18312;51.486;7.144;2022-10-17T11:10:40;21.20;99.90
31733;DHT22;18312;51.486;7.144;2022-10-17T11:13:12;21.00;99.90
31733;DHT22;18312;51.486;7.144;2022-10-17T11:15:44;21.00;99.90
31733;DHT22;18312;51.486;7.144;2022-10-17T11:18:21;20.80;99.90
31733;DHT22;18312;51.486;7.144;2022-10-17T11:20:52;20.70;99.90
31733;DHT22;18312;51.486;7.144;2022-10-17T11:23:27;20.70;99.90
31733;DHT22;18312;51.486;7.144;2022-10-17T11:25:59;20.70;99.90
31733;DHT22;18312;51.486;7.144;2022-10-17T11:28:29;20.80;99.90
31733;DHT22;18312;51.486;7.144;2022-10-17T11:31:00;20.90;99.90
31733;DHT22;18312;51.486;7.144;2022-10-17T11:33:34;21.00;99.90
31733;DHT22;18312;51.486;7.144;2022-10-17T11:36:07;21.00;99.90
31733;DHT22;18312;51.486;7.144;2022-10-17T11:38:39;21.00;99.90
31733;DHT22;18312;51.486;7.144;2022-10-17T11:41:11;21.00;99.90
31733;DHT22;18312;51.486;7.144;2022-10-17T11:43:45;21.00;99.90
31733;DHT22;18312;51.486;7.144;2022-10-17T11:46:17;21.10;99.90
31733;DHT22;18312;51.486;7.144;2022-10-17T11:49:00;21.10;99.90
31733;DHT22;18312;51.486;7.144;2022-10-17T11:51:29;21.20;99.90
31733;DHT22;18312;51.486;7.144;2022-10-17T11:54:03;21.30;99.90
31733;DHT22;18312;51.486;7.144;2022-10-17T11:56:40;21.40;99.90
31733;DHT22;18312;51.486;7.144;2022-10-17T11:59:28;21.40;99.90
31733;DHT22;18312;51.486;7.144;2022-10-17T12:02:03;21.50;99.90
31733;DHT22;18312;51.486;7.144;2022-10-17T12:04:39;21.50;99.90
31733;DHT22;18312;51.486;7.144;2022-10-17T12:07:14;21.50;99.90
31733;DHT22;18312;51.486;7.144;2022-10-17T12:09:46;21.50;99.90
31733;DHT22;18312;51.486;7.144;2022-10-17T12:12:24;21.50;99.90
31733;DHT22;18312;51.486;7.144;2022-10-17T12:14:53;21.40;99.90
31733;DHT22;18312;51.486;7.144;2022-10-17T12:17:31;21.30;99.90
31733;DHT22;18312;51.486;7.144;2022-10-17T12:20:28;21.20;99.90
31733;DHT22;18312;51.486;7.144;2022-10-17T12:23:00;21.10;99.90
31733;DHT22;18312;51.486;7.144;2022-10-17T12:25:29;21.10;99.90
31733;DHT22;18312;51.486;7.144;2022-10-17T12:28:13;21.00;99.90
31733;DHT22;18312;51.486;7.144;2022-10-17T12:30:53;21.00;99.90
31733;DHT22;18312;51.486;7.144;2022-10-17T12:33:29;20.90;99.90
31733;DHT22;18312;51.486;7.144;2022-10-17T12:42:31;20.60;99.90
31733;DHT22;18312;51.486;7.144;2022-10-17T12:44:58;20.50;99.90
31733;DHT22;18312;51.486;7.144;2022-10-17T12:47:36;20.40;99.90
31733;DHT22;18312;51.486;7.144;2022-10-17T12:53:15;20.20;99.90
31733;DHT22;18312;51.486;7.144;2022-10-17T12:55:43;20.20;99.90
31733;DHT22;18312;51.486;7.144;2022-10-17T12:58:15;20.10;99.90
31733;DHT22;18312;51.486;7.144;2022-10-17T13:00:50;20.00;99.90
31733;DHT22;18312;51.486;7.144;2022-10-17T13:03:20;20.00;99.90
31733;DHT22;18312;51.486;7.144;2022-10-17T13:05:50;20.00;99.90
31733;DHT22;18312;51.486;7.144;2022-10-17T13:08:21;20.00;99.90
31733;DHT22;18312;51.486;7.144;2022-10-17T13:10:51;19.90;99.90
31733;DHT22;18312;51.486;7.144;2022-10-17T13:13:20;19.80;99.90
31733;DHT22;18312;51.486;7.144;2022-10-17T13:15:48;19.90;99.90
31733;DHT22;18312;51.486;7.144;2022-10-17T13:18:20;20.00;99.90
31733;DHT22;18312;51.486;7.144;2022-10-17T13:20:55;20.00;99.90
31733;DHT22;18312;51.486;7.144;2022-10-17T13:23:25;19.90;99.90
31733;DHT22;18312;51.486;7.144;2022-10-17T13:26:05;19.80;99.90
31733;DHT22;18312;51.486;7.144;2022-10-17T13:28:32;19.70;99.90
31733;DHT22;18312;51.486;7.144;2022-10-17T13:30:59;19.70;99.90
31733;DHT22;18312;51.486;7.144;2022-10-17T13:33:32;19.60;99.90
31733;DHT22;18312;51.486;7.144;2022-10-17T13:36:02;19.50;99.90
31733;DHT22;18312;51.486;7.144;2022-10-17T13:38:32;19.50;99.90
31733;DHT22;18312;51.486;7.144;2022-10-17T13:40:59;19.40;99.90
31733;DHT22;18312;51.486;7.144;2022-10-17T13:43:26;19.40;99.90
31733;DHT22;18312;51.486;7.144;2022-10-17T13:45:59;19.40;99.90
31733;DHT22;18312;51.486;7.144;2022-10-17T13:48:31;19.40;99.90
31733;DHT22;18312;51.486;7.144;2022-10-17T13:51:00;19.30;99.90
31733;DHT22;18312;51.486;7.144;2022-10-17T13:53:31;19.30;99.90
31733;DHT22;18312;51.486;7.144;2022-10-17T13:56:00;19.30;99.90
31733;DHT22;18312;51.486;7.144;2022-10-17T13:58:31;19.30;99.90
31733;DHT22;18312;51.486;7.144;2022-10-17T14:01:00;19.20;99.90
31733;DHT22;18312;51.486;7.144;2022-10-17T14:03:28;19.30;99.90
31733;DHT22;18312;51.486;7.144;2022-10-17T14:06:03;19.40;99.90
31733;DHT22;18312;51.486;7.144;2022-10-17T14:08:33;19.30;99.90
31733;DHT22;18312;51.486;7.144;2022-10-17T14:11:00;19.40;99.90
31733;DHT22;18312;51.486;7.144;2022-10-17T14:13:29;19.40;99.90
31733;DHT22;18312;51.486;7.144;2022-10-17T14:16:02;19.20;99.90
31733;DHT22;18312;51.486;7.144;2022-10-17T14:18:32;19.20;99.90
31733;DHT22;18312;51.486;7.144;2022-10-17T14:21:06;19.20;99.90
31733;DHT22;18312;51.486;7.144;2022-10-17T14:23:37;19.40;99.90
31733;DHT22;18312;51.486;7.144;2022-10-17T14:26:08;19.40;99.90
31733;DHT22;18312;51.486;7.144;2022-10-17T14:28:37;19.40;99.90
31733;DHT22;18312;51.486;7.144;2022-10-17T14:31:28;19.40;99.90
31733;DHT22;18312;51.486;7.144;2022-10-17T14:33:57;19.40;99.90
31733;DHT22;18312;51.486;7.144;2022-10-17T14:36:34;19.40;99.90
31733;DHT22;18312;51.486;7.144;2022-10-17T14:39:05;19.40;99.90
31733;DHT22;18312;51.486;7.144;2022-10-17T14:41:34;19.30;99.90
31733;DHT22;18312;51.486;7.144;2022-10-17T14:44:03;19.40;99.90
31733;DHT22;18312;51.486;7.144;2022-10-17T14:46:31;19.30;99.90
31733;DHT22;18312;51.486;7.144;2022-10-17T14:49:04;19.30;99.90
31733;DHT22;18312;51.486;7.144;2022-10-17T14:51:31;19.20;99.90
31733;DHT22;18312;51.486;7.144;2022-10-17T14:54:19;19.30;99.90
31733;DHT22;18312;51.486;7.144;2022-10-17T14:56:50;19.30;99.90
31733;DHT22;18312;51.486;7.144;2022-10-17T14:59:17;19.30;99.90
31733;DHT22;18312;51.486;7.144;2022-10-17T15:01:48;19.20;99.90
31733;DHT22;18312;51.486;7.144;2022-10-17T15:04:15;19.20;99.90
31733;DHT22;18312;51.486;7.144;2022-10-17T15:06:43;19.20;99.90
31733;DHT22;18312;51.486;7.144;2022-10-17T15:09:12;19.20;99.90
31733;DHT22;18312;51.486;7.144;2022-10-17T15:11:39;19.20;99.90
31733;DHT22;18312;51.486;7.144;2022-10-17T15:14:06;19.20;99.90
31733;DHT22;18312;51.486;7.144;2022-10-17T15:16:34;19.20;99.90
31733;DHT22;18312;51.486;7.144;2022-10-17T15:19:01;19.20;99.90
31733;DHT22;18312;51.486;7.144;2022-10-17T15:21:28;19.20;99.90
31733;DHT22;18312;51.486;7.144;2022-10-17T15:23:55;19.20;99.90
31733;DHT22;18312;51.486;7.144;2022-10-17T15:26:29;19.10;99.90
31733;DHT22;18312;51.486;7.144;2022-10-17T15:28:57;19.00;99.90
31733;DHT22;18312;51.486;7.144;2022-10-17T15:31:25;18.90;99.90
31733;DHT22;18312;51.486;7.144;2022-10-17T15:33:52;18.90;99.90
31733;DHT22;18312;51.486;7.144;2022-10-17T15:36:21;18.90;99.90
31733;DHT22;18312;51.486;7.144;2022-10-17T15:38:49;18.90;99.90
31733;DHT22;18312;51.486;7.144;2022-10-17T15:41:18;18.80;99.90
31733;DHT22;18312;51.486;7.144;2022-10-17T15:43:47;18.70;99.90
31733;DHT22;18312;51.486;7.144;2022-10-17T15:46:16;18.60;99.90
31733;DHT22;18312;51.486;7.144;2022-10-17T15:48:44;18.60;99.90
31733;DHT22;18312;51.486;7.144;2022-10-17T15:51:11;18.40;99.90
31733;DHT22;18312;51.486;7.144;2022-10-17T15:53:38;18.30;99.90
31733;DHT22;18312;51.486;7.144;2022-10-17T15:56:07;18.30;99.90
31733;DHT22;18312;51.486;7.144;2022-10-17T15:58:40;18.20;99.90
31733;DHT22;18312;51.486;7.144;2022-10-17T16:01:14;18.20;99.90